• Join FlightAware (Why Join?)
  • Login
  • US Flag 
 
05:57PM EST


 

Airport Tracker/Info


-or-


 

Live Flight TrackerFlight Track Log ✈ UAL5900 ✈ 13-Sep-2013 ✈ KSYR - KORD

Flight Track Log - Related Links

Times and Time Zones

All times are in EDT time to prevent confusion due to time zone crossing. See the UAL5900 flight status page for this flight to view local times or setup timezone preferences in your user account.

Time Position Orientation Groundspeed Altitude Reporting Facility
EDT Latitude Longitude Course Direction KTS MPH feet Rate Location/Type
12:09PM 43.1072 -76.1433 241° Southwest 162 186 1,200  Level Boston Center
12:09PM 43.1067 -76.1575 267° West 168 193 1,800 1,740 Climbing Boston Center
12:12PM 43.1658 -76.3303 295° West 213 245 6,000 1,800 Climbing Cleveland Center
12:13PM 43.1961 -76.4194 295° West 239 275 8,100 2,160 Climbing Cleveland Center
12:14PM 43.0787 -76.8098 241° Southwest  Level Estimated
12:14PM 43.2144 -76.5236 284° West 263 303 10,400  Level Cleveland Center
12:15PM 43.2328 -76.6336 283° West 286 329 11,100 900 Climbing Cleveland Center
12:16PM 43.2536 -76.7547 283° West 315 362 12,300 1,320 Climbing Cleveland Center
12:17PM 43.2764 -76.8847 284° West 333 383 13,800 1,320 Climbing Cleveland Center
12:18PM 43.2953 -77.0147 281° West 347 399 15,000 1,200 Climbing Cleveland Center
12:19PM 43.3117 -77.1481 280° West 352 405 16,300 1,140 Climbing Cleveland Center
12:20PM 43.3094 -77.2822 269° West 352 405 17,300 1,200 Climbing Cleveland Center
12:21PM 43.3028 -77.4194 266° West 352 405 18,800 1,680 Climbing Cleveland Center
12:22PM 43.3003 -77.5567 269° West 358 412 20,700 1,740 Climbing Cleveland Center
12:23PM 43.2972 -77.6822 268° West 353 406 22,300 1,440 Climbing Cleveland Center
12:24PM 43.2942 -77.8136 268° West 348 400 23,600 1,380 Climbing Cleveland Center
12:25PM 43.2911 -77.9592 268° West 353 406 25,100 1,440 Climbing Cleveland Center
12:26PM 43.2858 -78.0936 267° West 353 406 26,500 1,380 Climbing Cleveland Center
12:27PM 43.2822 -78.2219 268° West 348 400 27,900 1,260 Climbing Cleveland Center
12:28PM 43.2786 -78.3506 268° West 348 400 29,100 1,140 Climbing Cleveland Center
12:29PM 43.2747 -78.4789 268° West 348 400 30,200 1,200 Climbing Cleveland Center
12:30PM 43.2686 -78.6075 266° West 348 400 31,500 1,200 Climbing Cleveland Center
12:31PM 43.2644 -78.7358 267° West 348 400 32,700 960 Climbing Cleveland Center
12:32PM 43.2603 -78.8642 267° West 348 400 33,500 540 Climbing Cleveland Center
12:33PM 43.2500 -79.0167 265° West 350 403 34,000 300 Climbing Toronto Center
12:34PM 43.2500 -79.1333 270° West 340 391 34,300 600 Climbing Toronto Center
12:35PM 43.3000 -79.2500 301° West 330 380 35,300 840 Climbing Toronto Center
12:36PM 43.3667 -79.3333 318° Northwest 330 380 36,000 300 Climbing Toronto Center
12:37PM 43.4333 -79.4333 313° West 330 380 36,000  Level Toronto Center
12:38PM 43.4833 -79.5167 310° West 350 403 36,000  Level Toronto Center
12:39PM 43.5500 -79.6333 308° West 370 426 36,000  Level Toronto Center
12:40PM 43.6333 -79.7500 315° West 390 449 36,000  Level Toronto Center
12:41PM 43.7000 -79.8667 308° West 390 449 36,000  Level Toronto Center
12:42PM 43.7500 -80.0000 297° West 390 449 36,000  Level Toronto Center
12:43PM 43.7333 -80.1667 262° West 410 472 36,000  Level Toronto Center
12:44PM 43.7000 -80.3167 253° West 430 495 36,000  Level Toronto Center
12:45PM 43.6667 -80.4833 255° West 430 495 36,000  Level Toronto Center
12:46PM 43.6333 -80.6167 251° West 430 495 36,000  Level Toronto Center
12:47PM 43.6167 -80.8000 263° West 430 495 36,000  Level Toronto Center
12:48PM 43.5667 -80.9500 245° Southwest 430 495 36,000  Level Toronto Center
12:49PM 43.5333 -81.1000 253° West 430 495 36,000  Level Toronto Center
12:50PM 43.5000 -81.2667 255° West 420 483 36,000  Level Toronto Center
12:52PM 43.4564 -81.5669 259° West 439 505 36,000  Level Cleveland Center
12:53PM 43.4217 -81.7208 253° West 434 499 36,000  Level Cleveland Center
12:54PM 43.3844 -81.8742 252° West 434 499 36,000  Level Cleveland Center
12:55PM 43.3556 -82.0364 256° West 439 505 36,000  Level Cleveland Center
12:56PM 43.3181 -82.1981 252° West 439 505 36,000  Level Cleveland Center
12:57PM 43.2844 -82.3569 254° West 434 499 36,000  Level Cleveland Center
12:58PM 43.2486 -82.5042 252° West 434 499 36,000  Level Cleveland Center
12:59PM 43.2169 -82.6542 254° West 421 484 36,000  Level Cleveland Center
01:00PM 43.1828 -82.8069 253° West 421 484 36,000  Level Cleveland Center
01:01PM 43.1461 -82.9678 253° West 426 490 36,000 -420 Level Cleveland Center
01:02PM 43.1117 -83.1172 253° West 426 490 35,200 -1,080 Descending Cleveland Center
01:03PM 43.0750 -83.2719 252° West 426 490 33,900 -1,320 Descending Cleveland Center
01:04PM 43.0422 -83.4239 254° West 426 490 32,600 -960 Descending Cleveland Center
01:05PM 43.0050 -83.5783 252° West 426 490 32,000 -300 Descending Cleveland Center
01:06PM 42.9669 -83.7469 253° West 421 484 32,000  Level Cleveland Center
01:07PM 42.9525 -83.8964 263° West 414 476 32,000  Level Cleveland Center
01:08PM 42.9378 -84.0403 262° West 401 461 32,000  Level Cleveland Center
01:10PM 42.9000 -84.3167 260° West 390 449 32,000  Level Toronto Center
01:11PM 42.8833 -84.4833 262° West 390 449 32,000  Level Toronto Center
01:12PM 42.8667 -84.6333 261° West 400 460 32,000  Level Toronto Center
01:13PM 42.8500 -84.7667 260° West 390 449 32,000  Level Toronto Center
01:14PM 42.8333 -84.9333 262° West 390 449 32,000 -360 Level Toronto Center
01:15PM 42.8275 -85.1267 268° West 385 443 31,100 -1,140 Descending Chicago Center
01:16PM 42.8122 -85.2667 262° West 377 434 29,100 -1,860 Descending Chicago Center
01:17PM 42.7967 -85.4047 261° West 371 427 27,300 -1,800 Descending Chicago Center
01:18PM 42.7800 -85.5394 260° West 362 417 25,400 -1,500 Descending Chicago Center
01:19PM 42.7511 -85.6981 256° West 360 414 24,200 -1,500 Descending Chicago Center
01:20PM 42.7269 -85.8264 256° West 350 403 22,300 -1,860 Descending Chicago Center
01:21PM 42.7036 -85.9542 256° West 348 400 20,400 -1,140 Descending Chicago Center
01:23PM 42.6814 -86.0783 256° West 341 392 20,000 -240 Descending Chicago Center
01:24PM 42.6597 -86.1978 256° West 329 379 20,000  Level Chicago Center
01:25PM 42.6369 -86.3194 256° West 329 379 20,000  Level Chicago Center
01:26PM 42.6111 -86.4567 256° West 361 415 20,000 -480 Level Chicago Center
01:27PM 42.5811 -86.6208 256° West 373 429 19,000 -1,440 Descending Chicago Center
01:28PM 42.5556 -86.7475 255° West 365 420 17,000 -2,400 Descending Chicago Center
01:29PM 42.5200 -86.8775 250° West 354 407 14,100 -2,460 Descending Chicago Center
01:30PM 42.5117 -87.0011 265° West 329 379 12,000 -1,500 Descending Chicago Center
01:31PM 42.4953 -87.1231 260° West 340 391 11,000 -900 Descending Chicago Center
01:32PM 42.4386 -87.2353 236° Southwest 365 420 10,200 -540 Descending Chicago Center
01:33PM 42.3811 -87.3761 241° Southwest 356 410 10,000 -120 Descending Chicago Center
01:34PM 42.3511 -87.4936 251° West 357 411 10,000 -60 Level Chicago Center
01:35PM 42.2853 -87.5922 228° Southwest 365 420 9,900 -780 Descending Chicago Center
01:36PM 42.2031 -87.6797 218° Southwest 315 362 8,500 -1,440 Descending Chicago Center
01:37PM 42.1383 -87.7483 218° Southwest 300 345 7,000 -720 Descending Chicago Center
01:38PM 42.0964 -87.8386 238° Southwest 295 339 7,000  Level Chicago Center
01:39PM 42.0767 -87.9381 255° West 286 329 7,000  Level Chicago Center
01:40PM 42.0656 -88.0308 261° West 272 313 7,000 -1,140 Level Chicago Center
01:41PM 42.0533 -88.1333 261° West 249 287 4,700 -2,040 Descending Chicago Center
01:42PM 42.0086 -88.1692 211° Southwest 249 287 2,900 -1,080 Descending Chicago Center
01:43PM 41.9814 -88.1008 118° Southeast 223 257 2,500 -300 Descending Chicago Center
01:44PM 41.9831 -88.0303 88° East 203 234 2,300 -480 Descending Chicago Center
01:45PM 41.9836 -87.9761 89° East 176 203 1,600 -480 Descending Chicago Center
01:46PM 41.9839 -87.9242 90° East 170 196 1,400 -240 Descending Chicago Center